sensor_id;sensor_type;location;lat;lon;timestamp;pressure;altitude;pressure_sealevel;temperature;humidity
51715;BME280;39115;59.332;18.034;2022-12-18T00:01:52;101690.63;;;-1.03;71.97
51715;BME280;39115;59.332;18.034;2022-12-18T00:04:22;101683.66;;;-1.03;72.05
51715;BME280;39115;59.332;18.034;2022-12-18T00:06:47;101689.75;;;-1.02;72.10
51715;BME280;39115;59.332;18.034;2022-12-18T00:09:12;101691.47;;;-1.01;72.02
51715;BME280;39115;59.332;18.034;2022-12-18T00:11:38;101690.53;;;-1.00;72.14
51715;BME280;39115;59.332;18.034;2022-12-18T00:14:03;101683.50;;;-0.97;72.16
51715;BME280;39115;59.332;18.034;2022-12-18T00:16:28;101686.97;;;-0.96;72.08
51715;BME280;39115;59.332;18.034;2022-12-18T00:18:56;101691.28;;;-0.93;72.22
51715;BME280;39115;59.332;18.034;2022-12-18T00:21:21;101691.22;;;-0.92;72.17
51715;BME280;39115;59.332;18.034;2022-12-18T00:23:47;101686.00;;;-0.92;72.08
51715;BME280;39115;59.332;18.034;2022-12-18T00:26:18;101692.09;;;-0.91;72.21
51715;BME280;39115;59.332;18.034;2022-12-18T00:28:44;101700.78;;;-0.91;71.87
51715;BME280;39115;59.332;18.034;2022-12-18T00:31:10;101685.19;;;-0.94;71.92
51715;BME280;39115;59.332;18.034;2022-12-18T00:33:36;101691.22;;;-0.90;71.87
51715;BME280;39115;59.332;18.034;2022-12-18T00:36:02;101687.66;;;-0.89;72.01
51715;BME280;39115;59.332;18.034;2022-12-18T00:38:27;101689.47;;;-0.91;72.18
51715;BME280;39115;59.332;18.034;2022-12-18T00:40:53;101682.44;;;-0.89;72.10
51715;BME280;39115;59.332;18.034;2022-12-18T00:43:18;101684.16;;;-0.88;72.04
51715;BME280;39115;59.332;18.034;2022-12-18T00:45:43;101678.03;;;-0.87;72.06
51715;BME280;39115;59.332;18.034;2022-12-18T00:48:09;101670.19;;;-0.87;71.95
51715;BME280;39115;59.332;18.034;2022-12-18T00:50:34;101671.03;;;-0.85;72.14
51715;BME280;39115;59.332;18.034;2022-12-18T00:52:59;101671.03;;;-0.85;72.00
51715;BME280;39115;59.332;18.034;2022-12-18T00:55:24;101669.25;;;-0.85;71.98
51715;BME280;39115;59.332;18.034;2022-12-18T00:57:51;101668.41;;;-0.85;72.16
51715;BME280;39115;59.332;18.034;2022-12-18T01:00:16;101673.59;;;-0.84;72.14
51715;BME280;39115;59.332;18.034;2022-12-18T01:02:42;101676.22;;;-0.84;72.08
51715;BME280;39115;59.332;18.034;2022-12-18T01:05:07;101664.03;;;-0.85;71.96
51715;BME280;39115;59.332;18.034;2022-12-18T01:07:33;101677.09;;;-0.83;72.22
51715;BME280;39115;59.332;18.034;2022-12-18T01:09:58;101674.47;;;-0.83;72.24
51715;BME280;39115;59.332;18.034;2022-12-18T01:12:23;101674.47;;;-0.83;71.96
51715;BME280;39115;59.332;18.034;2022-12-18T01:14:48;101677.09;;;-0.83;72.10
51715;BME280;39115;59.332;18.034;2022-12-18T01:17:14;101677.94;;;-0.83;72.09
51715;BME280;39115;59.332;18.034;2022-12-18T01:19:39;101686.66;;;-0.84;72.19
51715;BME280;39115;59.332;18.034;2022-12-18T01:22:05;101684.09;;;-0.85;72.41
51715;BME280;39115;59.332;18.034;2022-12-18T01:24:30;101689.31;;;-0.85;72.27
51715;BME280;39115;59.332;18.034;2022-12-18T01:26:55;101690.16;;;-0.85;72.31
51715;BME280;39115;59.332;18.034;2022-12-18T01:29:22;101685.81;;;-0.84;72.35
51715;BME280;39115;59.332;18.034;2022-12-18T01:31:47;101696.28;;;-0.84;72.03
51715;BME280;39115;59.332;18.034;2022-12-18T01:34:12;101696.22;;;-0.83;72.05
51715;BME280;39115;59.332;18.034;2022-12-18T01:36:38;101694.50;;;-0.82;72.29
51715;BME280;39115;59.332;18.034;2022-12-18T01:39:09;101690.94;;;-0.80;72.29
51715;BME280;39115;59.332;18.034;2022-12-18T01:41:35;101692.63;;;-0.77;72.28
51715;BME280;39115;59.332;18.034;2022-12-18T01:47:03;101674.22;;;-0.74;71.91
51715;BME280;39115;59.332;18.034;2022-12-18T01:49:28;101667.25;;;-0.73;71.89
51715;BME280;39115;59.332;18.034;2022-12-18T01:51:54;101660.25;;;-0.73;71.92
51715;BME280;39115;59.332;18.034;2022-12-18T01:54:19;101666.28;;;-0.71;72.19
51715;BME280;39115;59.332;18.034;2022-12-18T01:56:44;101657.59;;;-0.71;71.95
51715;BME280;39115;59.332;18.034;2022-12-18T01:59:10;101664.56;;;-0.70;72.15
51715;BME280;39115;59.332;18.034;2022-12-18T02:01:36;101662.78;;;-0.70;72.24
51715;BME280;39115;59.332;18.034;2022-12-18T02:06:46;101656.72;;;-0.72;72.10
51715;BME280;39115;59.332;18.034;2022-12-18T02:09:20;101658.41;;;-0.69;72.31
51715;BME280;39115;59.332;18.034;2022-12-18T02:16:51;101660.13;;;-0.68;72.20
51715;BME280;39115;59.332;18.034;2022-12-18T02:19:26;101661.84;;;-0.67;72.03
51715;BME280;39115;59.332;18.034;2022-12-18T02:22:04;101652.28;;;-0.68;72.13
51715;BME280;39115;59.332;18.034;2022-12-18T02:24:39;101659.28;;;-0.69;72.20
51715;BME280;39115;59.332;18.034;2022-12-18T02:27:07;101661.03;;;-0.69;72.45
51715;BME280;39115;59.332;18.034;2022-12-18T02:29:39;101652.31;;;-0.70;72.31
51715;BME280;39115;59.332;18.034;2022-12-18T02:32:10;101653.22;;;-0.71;71.98
51715;BME280;39115;59.332;18.034;2022-12-18T02:34:37;101654.09;;;-0.70;72.08
51715;BME280;39115;59.332;18.034;2022-12-18T02:37:04;101659.34;;;-0.70;72.14
51715;BME280;39115;59.332;18.034;2022-12-18T02:39:30;101653.19;;;-0.69;71.96
51715;BME280;39115;59.332;18.034;2022-12-18T02:41:58;101645.31;;;-0.69;72.31
51715;BME280;39115;59.332;18.034;2022-12-18T02:44:24;101649.66;;;-0.68;72.02
51715;BME280;39115;59.332;18.034;2022-12-18T02:46:50;101636.59;;;-0.68;72.11
51715;BME280;39115;59.332;18.034;2022-12-18T02:49:21;101647.03;;;-0.67;72.35
51715;BME280;39115;59.332;18.034;2022-12-18T02:51:53;101646.97;;;-0.65;72.16
51715;BME280;39115;59.332;18.034;2022-12-18T02:56:46;101628.69;;;-0.65;72.29
51715;BME280;39115;59.332;18.034;2022-12-18T02:59:16;101629.50;;;-0.63;72.02
51715;BME280;39115;59.332;18.034;2022-12-18T03:04:13;101638.19;;;-0.62;71.95
51715;BME280;39115;59.332;18.034;2022-12-18T03:06:42;101642.53;;;-0.61;72.09
51715;BME280;39115;59.332;18.034;2022-12-18T03:09:10;101645.19;;;-0.63;72.19
51715;BME280;39115;59.332;18.034;2022-12-18T03:11:38;101634.69;;;-0.61;72.11
51715;BME280;39115;59.332;18.034;2022-12-18T03:14:23;101628.63;;;-0.64;72.13
51715;BME280;39115;59.332;18.034;2022-12-18T03:16:51;101630.34;;;-0.62;72.11
51715;BME280;39115;59.332;18.034;2022-12-18T03:19:18;101620.72;;;-0.62;72.22
51715;BME280;39115;59.332;18.034;2022-12-18T03:21:47;101618.16;;;-0.64;72.26
51715;BME280;39115;59.332;18.034;2022-12-18T03:24:15;101619.06;;;-0.65;72.30
51715;BME280;39115;59.332;18.034;2022-12-18T03:26:42;101619.94;;;-0.66;72.14
51715;BME280;39115;59.332;18.034;2022-12-18T03:29:09;101626.06;;;-0.65;72.25
51715;BME280;39115;59.332;18.034;2022-12-18T03:31:37;101624.28;;;-0.65;72.45
51715;BME280;39115;59.332;18.034;2022-12-18T03:34:05;101619.09;;;-0.66;71.99
51715;BME280;39115;59.332;18.034;2022-12-18T03:36:34;101622.66;;;-0.69;72.43
51715;BME280;39115;59.332;18.034;2022-12-18T03:38:59;101622.72;;;-0.70;72.15
51715;BME280;39115;59.332;18.034;2022-12-18T03:41:32;101614.88;;;-0.70;72.18
51715;BME280;39115;59.332;18.034;2022-12-18T03:44:40;101628.84;;;-0.71;72.14
51715;BME280;39115;59.332;18.034;2022-12-18T03:49:12;101619.22;;;-0.71;72.52
51715;BME280;39115;59.332;18.034;2022-12-18T03:51:42;101627.94;;;-0.70;72.46
51715;BME280;39115;59.332;18.034;2022-12-18T03:54:11;101616.63;;;-0.71;72.39
51715;BME280;39115;59.332;18.034;2022-12-18T03:56:45;101614.00;;;-0.71;72.21
51715;BME280;39115;59.332;18.034;2022-12-18T03:59:12;101605.31;;;-0.71;72.47
51715;BME280;39115;59.332;18.034;2022-12-18T04:01:39;101594.03;;;-0.73;72.46
51715;BME280;39115;59.332;18.034;2022-12-18T04:04:05;101609.72;;;-0.73;72.27
51715;BME280;39115;59.332;18.034;2022-12-18T04:06:32;101619.28;;;-0.74;72.09
51715;BME280;39115;59.332;18.034;2022-12-18T04:08:57;101609.00;;;-0.78;72.13
51715;BME280;39115;59.332;18.034;2022-12-18T04:11:23;101612.44;;;-0.78;72.46
51715;BME280;39115;59.332;18.034;2022-12-18T04:13:48;101614.13;;;-0.75;72.47
51715;BME280;39115;59.332;18.034;2022-12-18T04:16:13;101620.28;;;-0.78;72.23
51715;BME280;39115;59.332;18.034;2022-12-18T04:18:38;101621.13;;;-0.76;72.23
51715;BME280;39115;59.332;18.034;2022-12-18T04:21:04;101624.63;;;-0.77;72.26
51715;BME280;39115;59.332;18.034;2022-12-18T04:23:29;101627.25;;;-0.77;72.47
51715;BME280;39115;59.332;18.034;2022-12-18T04:25:54;101634.19;;;-0.76;72.08
51715;BME280;39115;59.332;18.034;2022-12-18T04:28:20;101633.38;;;-0.78;72.26
51715;BME280;39115;59.332;18.034;2022-12-18T04:30:45;101630.81;;;-0.80;72.32
51715;BME280;39115;59.332;18.034;2022-12-18T04:33:11;101631.66;;;-0.79;72.05
51715;BME280;39115;59.332;18.034;2022-12-18T04:35:37;101630.81;;;-0.80;72.22
51715;BME280;39115;59.332;18.034;2022-12-18T04:38:02;101621.19;;;-0.79;72.11
51715;BME280;39115;59.332;18.034;2022-12-18T04:40:28;101633.38;;;-0.78;72.34
51715;BME280;39115;59.332;18.034;2022-12-18T04:42:53;101624.63;;;-0.77;72.39
51715;BME280;39115;59.332;18.034;2022-12-18T04:45:18;101621.13;;;-0.77;72.30
51715;BME280;39115;59.332;18.034;2022-12-18T04:47:43;101620.25;;;-0.76;72.35
51715;BME280;39115;59.332;18.034;2022-12-18T04:50:09;101611.59;;;-0.78;72.41
51715;BME280;39115;59.332;18.034;2022-12-18T04:52:34;101618.56;;;-0.79;72.48
51715;BME280;39115;59.332;18.034;2022-12-18T04:55:00;101617.72;;;-0.80;72.28
51715;BME280;39115;59.332;18.034;2022-12-18T04:57:25;101601.22;;;-0.82;72.30
51715;BME280;39115;59.332;18.034;2022-12-18T04:59:51;101594.22;;;-0.81;72.20
51715;BME280;39115;59.332;18.034;2022-12-18T05:02:16;101580.34;;;-0.83;72.28
51715;BME280;39115;59.332;18.034;2022-12-18T05:04:41;101586.34;;;-0.80;72.12
51715;BME280;39115;59.332;18.034;2022-12-18T05:07:07;101577.63;;;-0.78;72.50
51715;BME280;39115;59.332;18.034;2022-12-18T05:09:32;101579.34;;;-0.79;72.24
51715;BME280;39115;59.332;18.034;2022-12-18T05:11:57;101584.53;;;-0.77;72.44
51715;BME280;39115;59.332;18.034;2022-12-18T05:14:22;101581.91;;;-0.76;72.27
51715;BME280;39115;59.332;18.034;2022-12-18T05:16:48;101561.88;;;-0.77;72.45
51715;BME280;39115;59.332;18.034;2022-12-18T05:19:13;101566.22;;;-0.77;72.27
51715;BME280;39115;59.332;18.034;2022-12-18T05:21:39;101575.84;;;-0.78;72.47
51715;BME280;39115;59.332;18.034;2022-12-18T05:24:04;101569.78;;;-0.78;72.30
51715;BME280;39115;59.332;18.034;2022-12-18T05:26:29;101577.63;;;-0.80;72.18
51715;BME280;39115;59.332;18.034;2022-12-18T05:28:55;101555.88;;;-0.81;72.14
51715;BME280;39115;59.332;18.034;2022-12-18T05:31:21;101553.25;;;-0.81;72.25
51715;BME280;39115;59.332;18.034;2022-12-18T05:33:47;101562.84;;;-0.81;72.36
51715;BME280;39115;59.332;18.034;2022-12-18T05:36:12;101566.31;;;-0.81;72.34
51715;BME280;39115;59.332;18.034;2022-12-18T05:38:38;101555.81;;;-0.79;72.44
51715;BME280;39115;59.332;18.034;2022-12-18T05:41:03;101554.09;;;-0.78;72.49
51715;BME280;39115;59.332;18.034;2022-12-18T05:43:29;101556.63;;;-0.77;72.41
51715;BME280;39115;59.332;18.034;2022-12-18T05:45:54;101557.47;;;-0.75;72.15
51715;BME280;39115;59.332;18.034;2022-12-18T05:48:20;101557.41;;;-0.73;72.19
51715;BME280;39115;59.332;18.034;2022-12-18T05:50:46;101563.47;;;-0.71;72.26
51715;BME280;39115;59.332;18.034;2022-12-18T05:53:12;101552.97;;;-0.70;72.26
51715;BME280;39115;59.332;18.034;2022-12-18T05:55:38;101561.66;;;-0.69;72.47
51715;BME280;39115;59.332;18.034;2022-12-18T05:58:04;101550.28;;;-0.68;72.32
51715;BME280;39115;59.332;18.034;2022-12-18T06:00:31;101546.72;;;-0.66;72.23
51715;BME280;39115;59.332;18.034;2022-12-18T06:02:57;101540.59;;;-0.65;72.10
51715;BME280;39115;59.332;18.034;2022-12-18T06:05:24;101537.97;;;-0.63;72.31
51715;BME280;39115;59.332;18.034;2022-12-18T06:07:50;101538.75;;;-0.61;72.32
51715;BME280;39115;59.332;18.034;2022-12-18T06:10:15;101540.47;;;-0.60;72.09
51715;BME280;39115;59.332;18.034;2022-12-18T06:12:41;101543.91;;;-0.58;72.14
51715;BME280;39115;59.332;18.034;2022-12-18T06:15:06;101545.63;;;-0.57;72.32
51715;BME280;39115;59.332;18.034;2022-12-18T06:17:32;101536.00;;;-0.56;72.10
51715;BME280;39115;59.332;18.034;2022-12-18T06:19:57;101537.78;;;-0.57;72.19
51715;BME280;39115;59.332;18.034;2022-12-18T06:22:23;101534.28;;;-0.56;72.40
51715;BME280;39115;59.332;18.034;2022-12-18T06:24:48;101543.84;;;-0.56;72.27
51715;BME280;39115;59.332;18.034;2022-12-18T06:27:13;101541.22;;;-0.55;72.24
51715;BME280;39115;59.332;18.034;2022-12-18T06:29:39;101547.28;;;-0.54;72.21
51715;BME280;39115;59.332;18.034;2022-12-18T06:32:04;101538.50;;;-0.52;72.41
51715;BME280;39115;59.332;18.034;2022-12-18T06:34:29;101542.00;;;-0.51;72.18
51715;BME280;39115;59.332;18.034;2022-12-18T06:36:54;101533.31;;;-0.53;72.49
51715;BME280;39115;59.332;18.034;2022-12-18T06:39:20;101525.47;;;-0.53;72.09
51715;BME280;39115;59.332;18.034;2022-12-18T06:41:45;101524.56;;;-0.52;72.14
51715;BME280;39115;59.332;18.034;2022-12-18T06:44:10;101523.69;;;-0.51;72.29
51715;BME280;39115;59.332;18.034;2022-12-18T06:46:36;101518.44;;;-0.51;72.33
51715;BME280;39115;59.332;18.034;2022-12-18T06:49:01;101514.13;;;-0.52;72.43
51715;BME280;39115;59.332;18.034;2022-12-18T06:51:26;101529.69;;;-0.49;72.23
51715;BME280;39115;59.332;18.034;2022-12-18T06:53:52;101512.28;;;-0.50;71.98
51715;BME280;39115;59.332;18.034;2022-12-18T06:56:17;101534.03;;;-0.48;72.25
51715;BME280;39115;59.332;18.034;2022-12-18T06:58:42;101533.13;;;-0.47;72.45
51715;BME280;39115;59.332;18.034;2022-12-18T07:01:09;101536.66;;;-0.48;72.40
51715;BME280;39115;59.332;18.034;2022-12-18T07:03:35;101538.31;;;-0.45;72.26
51715;BME280;39115;59.332;18.034;2022-12-18T07:06:01;101527.84;;;-0.44;72.04
51715;BME280;39115;59.332;18.034;2022-12-18T07:08:26;101519.97;;;-0.44;72.27
51715;BME280;39115;59.332;18.034;2022-12-18T07:10:51;101526.09;;;-0.45;72.35
51715;BME280;39115;59.332;18.034;2022-12-18T07:13:17;101535.56;;;-0.41;72.02
51715;BME280;39115;59.332;18.034;2022-12-18T07:15:43;101542.53;;;-0.40;72.16
51715;BME280;39115;59.332;18.034;2022-12-18T07:18:08;101547.69;;;-0.38;72.51
51715;BME280;39115;59.332;18.034;2022-12-18T07:20:34;101545.91;;;-0.36;72.19
51715;BME280;39115;59.332;18.034;2022-12-18T07:23:01;101541.44;;;-0.33;72.18
51715;BME280;39115;59.332;18.034;2022-12-18T07:25:26;101548.34;;;-0.30;72.58
51715;BME280;39115;59.332;18.034;2022-12-18T07:27:52;101542.19;;;-0.27;72.09
51715;BME280;39115;59.332;18.034;2022-12-18T07:30:17;101538.59;;;-0.25;72.14
51715;BME280;39115;59.332;18.034;2022-12-18T07:32:43;101538.50;;;-0.22;72.04
51715;BME280;39115;59.332;18.034;2022-12-18T07:35:08;101525.34;;;-0.19;72.15
51715;BME280;39115;59.332;18.034;2022-12-18T07:37:33;101530.47;;;-0.16;72.14
51715;BME280;39115;59.332;18.034;2022-12-18T07:39:58;101526.03;;;-0.13;72.15
51715;BME280;39115;59.332;18.034;2022-12-18T07:42:24;101526.78;;;-0.08;72.34
51715;BME280;39115;59.332;18.034;2022-12-18T07:44:55;101530.16;;;-0.05;72.36
51715;BME280;39115;59.332;18.034;2022-12-18T07:47:20;101534.44;;;-0.02;72.10
51715;BME280;39115;59.332;18.034;2022-12-18T07:49:46;101523.91;;;-0.01;72.29
51715;BME280;39115;59.332;18.034;2022-12-18T07:52:11;101531.63;;;0.04;72.42
51715;BME280;39115;59.332;18.034;2022-12-18T07:54:37;101536.78;;;0.07;72.15
51715;BME280;39115;59.332;18.034;2022-12-18T07:57:02;101537.56;;;0.09;72.17
51715;BME280;39115;59.332;18.034;2022-12-18T07:59:28;101542.78;;;0.11;72.13
51715;BME280;39115;59.332;18.034;2022-12-18T08:01:53;101547.06;;;0.13;72.30
51715;BME280;39115;59.332;18.034;2022-12-18T08:04:18;101533.00;;;0.16;72.05
51715;BME280;39115;59.332;18.034;2022-12-18T08:06:44;101541.69;;;0.18;72.06
51715;BME280;39115;59.332;18.034;2022-12-18T08:09:09;101545.94;;;0.21;71.93
51715;BME280;39115;59.332;18.034;2022-12-18T08:11:34;101543.28;;;0.22;71.92
51715;BME280;39115;59.332;18.034;2022-12-18T08:14:00;101531.06;;;0.23;72.28
51715;BME280;39115;59.332;18.034;2022-12-18T08:16:25;101530.09;;;0.25;71.95
51715;BME280;39115;59.332;18.034;2022-12-18T08:18:51;101522.13;;;0.28;72.31
51715;BME280;39115;59.332;18.034;2022-12-18T08:21:21;101518.56;;;0.31;72.26
51715;BME280;39115;59.332;18.034;2022-12-18T08:23:48;101501.03;;;0.33;72.15
51715;BME280;39115;59.332;18.034;2022-12-18T08:26:13;101501.84;;;0.35;72.07
51715;BME280;39115;59.332;18.034;2022-12-18T08:28:39;101501.75;;;0.38;72.07
51715;BME280;39115;59.332;18.034;2022-12-18T08:31:05;101498.16;;;0.41;71.92
51715;BME280;39115;59.332;18.034;2022-12-18T08:33:30;101501.53;;;0.44;72.00
51715;BME280;39115;59.332;18.034;2022-12-18T08:35:56;101504.03;;;0.47;72.08
51715;BME280;39115;59.332;18.034;2022-12-18T08:38:22;101503.03;;;0.52;72.11
51715;BME280;39115;59.332;18.034;2022-12-18T08:40:48;101510.78;;;0.55;71.87
51715;BME280;39115;59.332;18.034;2022-12-18T08:43:13;101509.78;;;0.59;71.92
51715;BME280;39115;59.332;18.034;2022-12-18T08:45:57;101532.34;;;0.63;72.33
51715;BME280;39115;59.332;18.034;2022-12-18T08:48:22;101527.06;;;0.65;72.02
51715;BME280;39115;59.332;18.034;2022-12-18T08:50:55;101519.09;;;0.68;72.16
51715;BME280;39115;59.332;18.034;2022-12-18T08:53:20;101511.13;;;0.71;72.36
51715;BME280;39115;59.332;18.034;2022-12-18T08:55:46;101505.81;;;0.74;72.34
51715;BME280;39115;59.332;18.034;2022-12-18T08:58:11;101519.69;;;0.76;72.36
51715;BME280;39115;59.332;18.034;2022-12-18T09:00:36;101516.16;;;0.77;72.23
51715;BME280;39115;59.332;18.034;2022-12-18T09:03:02;101511.59;;;0.82;71.84
51715;BME280;39115;59.332;18.034;2022-12-18T09:05:27;101506.34;;;0.84;72.21
51715;BME280;39115;59.332;18.034;2022-12-18T09:07:52;101519.31;;;0.87;72.36
51715;BME280;39115;59.332;18.034;2022-12-18T09:10:18;101523.56;;;0.91;72.12
51715;BME280;39115;59.332;18.034;2022-12-18T09:12:43;101528.69;;;0.94;72.42
51715;BME280;39115;59.332;18.034;2022-12-18T09:15:08;101521.56;;;0.98;72.40
51715;BME280;39115;59.332;18.034;2022-12-18T09:17:33;101515.25;;;1.03;72.00
51715;BME280;39115;59.332;18.034;2022-12-18T09:19:59;101519.50;;;1.07;72.20
51715;BME280;39115;59.332;18.034;2022-12-18T09:22:24;101511.50;;;1.10;72.19
51715;BME280;39115;59.332;18.034;2022-12-18T09:24:49;101509.63;;;1.14;72.24
51715;BME280;39115;59.332;18.034;2022-12-18T09:27:15;101497.25;;;1.18;72.32
51715;BME280;39115;59.332;18.034;2022-12-18T09:29:40;101498.88;;;1.22;71.93
51715;BME280;39115;59.332;18.034;2022-12-18T09:32:05;101510.09;;;1.25;72.31
51715;BME280;39115;59.332;18.034;2022-12-18T09:34:31;101493.38;;;1.28;71.96
51715;BME280;39115;59.332;18.034;2022-12-18T09:36:56;101470.53;;;1.32;72.25
51715;BME280;39115;59.332;18.034;2022-12-18T09:39:22;101474.78;;;1.34;72.00
51715;BME280;39115;59.332;18.034;2022-12-18T09:41:51;101480.84;;;1.36;71.88
51715;BME280;39115;59.332;18.034;2022-12-18T09:44:28;101459.75;;;1.39;72.28
51715;BME280;39115;59.332;18.034;2022-12-18T09:49:43;101442.97;;;1.44;72.21
51715;BME280;39115;59.332;18.034;2022-12-18T09:54:44;101448.72;;;1.53;71.83
51715;BME280;39115;59.332;18.034;2022-12-18T09:57:18;101430.22;;;1.56;72.28
51715;BME280;39115;59.332;18.034;2022-12-18T09:59:46;101436.28;;;1.58;72.23
51715;BME280;39115;59.332;18.034;2022-12-18T10:02:16;101433.59;;;1.60;72.06
51715;BME280;39115;59.332;18.034;2022-12-18T10:04:42;101443.97;;;1.63;72.14
51715;BME280;39115;59.332;18.034;2022-12-18T10:07:29;101446.41;;;1.68;72.00
51715;BME280;39115;59.332;18.034;2022-12-18T10:09:56;101441.88;;;1.71;72.43
51715;BME280;39115;59.332;18.034;2022-12-18T10:12:30;101434.88;;;1.72;72.14
51715;BME280;39115;59.332;18.034;2022-12-18T10:15:03;101437.50;;;1.72;71.95
51715;BME280;39115;59.332;18.034;2022-12-18T10:17:42;101423.47;;;1.73;72.18
51715;BME280;39115;59.332;18.034;2022-12-18T10:22:41;101411.88;;;1.79;72.23
51715;BME280;39115;59.332;18.034;2022-12-18T10:25:28;101408.25;;;1.81;72.40
51715;BME280;39115;59.332;18.034;2022-12-18T10:27:58;101430.25;;;1.79;72.38
51715;BME280;39115;59.332;18.034;2022-12-18T10:30:26;101424.78;;;1.83;72.47
51715;BME280;39115;59.332;18.034;2022-12-18T10:32:52;101403.66;;;1.86;72.16
51715;BME280;39115;59.332;18.034;2022-12-18T10:37:59;101451.78;;;1.87;72.36
51715;BME280;39115;59.332;18.034;2022-12-18T10:40:24;101428.03;;;1.90;72.35
51715;BME280;39115;59.332;18.034;2022-12-18T10:43:09;101428.88;;;1.90;72.12
51715;BME280;39115;59.332;18.034;2022-12-18T10:45:35;101439.38;;;1.90;72.22
51715;BME280;39115;59.332;18.034;2022-12-18T10:48:00;101431.50;;;1.90;71.79
51715;BME280;39115;59.332;18.034;2022-12-18T10:52:58;101414.97;;;1.88;72.29
51715;BME280;39115;59.332;18.034;2022-12-18T10:55:24;101434.19;;;1.89;72.45
51715;BME280;39115;59.332;18.034;2022-12-18T10:57:52;101443.84;;;1.88;72.25
51715;BME280;39115;59.332;18.034;2022-12-18T11:00:28;101439.44;;;1.89;72.48
51715;BME280;39115;59.332;18.034;2022-12-18T11:02:54;101444.59;;;1.92;72.23
51715;BME280;39115;59.332;18.034;2022-12-18T11:05:30;101434.00;;;1.94;72.17
51715;BME280;39115;59.332;18.034;2022-12-18T11:07:56;101434.00;;;1.94;72.24
51715;BME280;39115;59.332;18.034;2022-12-18T11:10:25;101424.38;;;1.94;72.25
51715;BME280;39115;59.332;18.034;2022-12-18T11:12:51;101430.53;;;1.93;72.25
51715;BME280;39115;59.332;18.034;2022-12-18T11:15:27;101429.63;;;1.94;72.28
51715;BME280;39115;59.332;18.034;2022-12-18T11:17:53;101427.00;;;1.94;72.29
51715;BME280;39115;59.332;18.034;2022-12-18T11:20:31;101416.44;;;1.96;72.35
51715;BME280;39115;59.332;18.034;2022-12-18T11:23:05;101452.31;;;1.95;72.33
51715;BME280;39115;59.332;18.034;2022-12-18T11:25:36;101436.53;;;1.97;72.31
51715;BME280;39115;59.332;18.034;2022-12-18T11:30:45;101433.84;;;1.98;72.44
51715;BME280;39115;59.332;18.034;2022-12-18T11:33:13;101415.44;;;1.98;72.20
51715;BME280;39115;59.332;18.034;2022-12-18T11:40:45;101393.44;;;2.01;72.43
51715;BME280;39115;59.332;18.034;2022-12-18T11:43:16;101399.63;;;2.00;72.11
51715;BME280;39115;59.332;18.034;2022-12-18T11:53:12;101417.81;;;2.04;72.20
51715;BME280;39115;59.332;18.034;2022-12-18T11:58:18;101416.81;;;2.07;72.25
51715;BME280;39115;59.332;18.034;2022-12-18T12:00:51;101416.00;;;2.07;72.32
51715;BME280;39115;59.332;18.034;2022-12-18T12:03:27;101407.13;;;2.09;72.40
51715;BME280;39115;59.332;18.034;2022-12-18T12:16:51;101414.00;;;2.12;72.25
51715;BME280;39115;59.332;18.034;2022-12-18T12:21:58;101413.97;;;2.13;72.41
51715;BME280;39115;59.332;18.034;2022-12-18T12:27:21;101437.47;;;2.16;72.46
51715;BME280;39115;59.332;18.034;2022-12-18T12:39:59;101443.44;;;2.20;72.26
51715;BME280;39115;59.332;18.034;2022-12-18T12:42:29;101427.69;;;2.20;72.47
51715;BME280;39115;59.332;18.034;2022-12-18T12:45:22;101424.06;;;2.22;72.29
51715;BME280;39115;59.332;18.034;2022-12-18T12:47:51;101432.81;;;2.23;72.26
51715;BME280;39115;59.332;18.034;2022-12-18T12:50:18;101425.75;;;2.25;72.22
51715;BME280;39115;59.332;18.034;2022-12-18T12:52:46;101437.91;;;2.28;72.30
51715;BME280;39115;59.332;18.034;2022-12-18T12:55:16;101430.72;;;2.31;72.37
51715;BME280;39115;59.332;18.034;2022-12-18T12:57:44;101440.19;;;2.35;72.32
51715;BME280;39115;59.332;18.034;2022-12-18T13:00:11;101432.19;;;2.39;72.21
51715;BME280;39115;59.332;18.034;2022-12-18T13:02:39;101438.16;;;2.42;72.19
51715;BME280;39115;59.332;18.034;2022-12-18T13:05:19;101438.09;;;2.44;72.39
51715;BME280;39115;59.332;18.034;2022-12-18T13:07:50;101437.97;;;2.47;72.50
51715;BME280;39115;59.332;18.034;2022-12-18T13:12:54;101433.44;;;2.50;72.43
51715;BME280;39115;59.332;18.034;2022-12-18T13:18:04;101428.03;;;2.53;72.43
51715;BME280;39115;59.332;18.034;2022-12-18T13:20:33;101438.50;;;2.55;72.18
51715;BME280;39115;59.332;18.034;2022-12-18T13:23:00;101440.13;;;2.58;72.34
51715;BME280;39115;59.332;18.034;2022-12-18T13:25:35;101427.78;;;2.60;72.30
51715;BME280;39115;59.332;18.034;2022-12-18T13:28:05;101422.38;;;2.63;72.25
51715;BME280;39115;59.332;18.034;2022-12-18T13:38:22;101411.59;;;2.69;72.37
51715;BME280;39115;59.332;18.034;2022-12-18T13:45:45;101405.38;;;2.72;72.25
51715;BME280;39115;59.332;18.034;2022-12-18T13:48:19;101400.09;;;2.72;72.32
51715;BME280;39115;59.332;18.034;2022-12-18T13:50:53;101408.91;;;2.71;72.46
51715;BME280;39115;59.332;18.034;2022-12-18T13:53:21;101416.81;;;2.71;72.39
51715;BME280;39115;59.332;18.034;2022-12-18T13:55:48;101438.66;;;2.71;72.42
51715;BME280;39115;59.332;18.034;2022-12-18T13:58:14;101426.41;;;2.72;72.16
51715;BME280;39115;59.332;18.034;2022-12-18T14:00:43;101440.38;;;2.72;72.33
51715;BME280;39115;59.332;18.034;2022-12-18T14:03:16;101435.00;;;2.75;72.47
51715;BME280;39115;59.332;18.034;2022-12-18T14:05:43;101431.44;;;2.76;72.37
51715;BME280;39115;59.332;18.034;2022-12-18T14:08:13;101427.88;;;2.77;72.08
51715;BME280;39115;59.332;18.034;2022-12-18T14:10:42;101447.09;;;2.79;72.76
51715;BME280;39115;59.332;18.034;2022-12-18T14:13:09;101437.44;;;2.80;72.35
51715;BME280;39115;59.332;18.034;2022-12-18T14:15:41;101440.97;;;2.79;72.53
51715;BME280;39115;59.332;18.034;2022-12-18T14:20:41;101442.69;;;2.80;72.50